LIPX Airport Information

Runway Information
Runway 04 Length 10064 ft width 148 ft
Elevation 220 ft Threshold 189 ft Heading 46
Runway 22 Length 10064 ft Width 148 ft
Elevation 238 ft Threshold 1345 ft Heading 226
Airport Frequencies
Type APP Name GARDA APP Frequency 36.23 MHZ
Type APP Name GARDA APP Frequency 124.45 MHZ
Type GND Name GND Frequency 121.75 MHZ
Type INFO Name PADOVA INF Frequency 123.25 MHZ
Type TWR Name TWR Frequency 118.65 MHZ
Airport Navaids
Type VORTAC Name Villafranca Frequency 115800 KHZ
Type NDB Name Villafranca Frequency 355 KHZ
Airport Weather Information & NOTAM
ADDS - METARS form results

(0829 UTC 17 October 2021)
Data provider http://aviationweather.gov/metar/data/
 
METAR text: LIPX 170820Z VRB01KT CAVOK 13/06 Q1021
Conditions at: LIPX (VILLAFRANCA(CV/M, IT) observed 0820 UTC 17 October 2021
Temperature: 13.0°C (55°F)
Dewpoint: 6.0°C (43°F) [RH = 62%]
Pressure (altimeter): 30.15 inches Hg (1021.0 mb)
Winds: variable direction winds at 1 MPH (1 knots; 0.5 m/s)
Visibility: 6 or more miles (10+ km)
Ceiling: ceiling and visibility are OK
Clouds: unknown
Weather: no significant weather observed at this time

METAR text: LIPX 170750Z VRB01KT CAVOK 12/07 Q1021
Conditions at: LIPX (VILLAFRANCA(CV/M, IT) observed 0750 UTC 17 October 2021
Temperature: 12.0°C (54°F)
Dewpoint: 7.0°C (45°F) [RH = 71%]
Pressure (altimeter): 30.15 inches Hg (1021.0 mb)
Winds: variable direction winds at 1 MPH (1 knots; 0.5 m/s)
Visibility: 6 or more miles (10+ km)
Ceiling: ceiling and visibility are OK
Clouds: unknown
Weather: no significant weather observed at this time

Forecast for: LIPX (VILLAFRANCA(CV/M, IT)
Text: TAF LIPX 170500Z 1706/1806 VRB05KT CAVOK
Forecast period: 0600 UTC 17 October 2021 to 0600 UTC 18 October 2021
Forecast type: FROM: standard forecast or significant change
Winds: variable direction winds at 6 MPH (5 knots; 2.6 m/s)
Visibility: 6 or more miles (10+ km)
Ceiling: unknown
Clouds: missing
Weather: NSW  (no significant weather)
Text: TEMPO 1800/1806 4000 BR
Forecast period: 0000 to 0600 UTC 18 October 2021
Forecast type: TEMPORARY: The following changes expected for less than half the time period
Visibility: 2.49 miles (4.01 km)
Ceiling: unknown
Clouds: missing
Weather: BR  (mist)